Time;durP1;ratioP1;P1;durP2;ratioP2;P2;SDS_P1;SDS_P2;PMS_P1;PMS_P2;Temp;Humidity;BMP_temperature;BMP_pressure;BME280_temperature;BME280_humidity;BME280_pressure;Samples;Min_cycle;Max_cycle;Signal;HPM_P1;HPM_P2
2023/05/06 00:00:16;;;;;;;24.00;15.80;;;;;;;;;;6211987;23;20422;-76
2023/05/06 00:02:42;;;;;;;22.13;15.77;;;;;;;;;;6164387;23;20406;-76
2023/05/06 00:05:08;;;;;;;23.77;15.13;;;;;;;;;;6213603;23;20359;-76
2023/05/06 00:07:34;;;;;;;22.52;15.35;;;;;;;;;;6212474;23;20406;-76
2023/05/06 00:10:01;;;;;;;20.23;14.60;;;;;;;;;;6214784;23;20361;-76
2023/05/06 00:12:27;;;;;;;23.55;15.85;;;;;;;;;;6213215;23;20374;-76
2023/05/06 00:14:53;;;;;;;22.30;16.05;;;;;;;;;;6212906;23;20382;-76
2023/05/06 00:17:19;;;;;;;23.50;15.77;;;;;;;;;;6186750;23;20372;-77
2023/05/06 00:19:45;;;;;;;24.57;16.13;;;;;;;;;;6188251;23;20422;-76
2023/05/06 00:22:11;;;;;;;22.13;15.30;;;;;;;;;;6214675;23;20410;-76
2023/05/06 00:24:37;;;;;;;23.17;15.32;;;;;;;;;;6188329;23;20728;-76
2023/05/06 00:27:03;;;;;;;23.15;15.30;;;;;;;;;;6213595;23;20395;-77
2023/05/06 00:29:29;;;;;;;25.88;16.23;;;;;;;;;;6211327;23;20367;-77
2023/05/06 00:31:56;;;;;;;26.92;16.80;;;;;;;;;;6164352;23;20372;-77
2023/05/06 00:34:22;;;;;;;24.20;16.45;;;;;;;;;;6190341;23;20368;-76
2023/05/06 00:36:48;;;;;;;26.60;17.33;;;;;;;;;;6216489;23;20455;-74
2023/05/06 00:39:15;;;;;;;29.58;17.88;;;;;;;;;;6164556;23;20367;-75
2023/05/06 00:41:46;;;;;;;29.52;17.25;;;;;;;;;;6215386;23;20406;-75
2023/05/06 00:44:13;;;;;;;26.88;17.50;;;;;;;;;;6213908;23;20379;-76
2023/05/06 00:46:39;;;;;;;25.75;17.15;;;;;;;;;;6189781;23;20368;-76
2023/05/06 00:49:05;;;;;;;30.20;18.70;;;;;;;;;;6189533;23;20370;-76
2023/05/06 00:51:31;;;;;;;28.50;18.23;;;;;;;;;;6214631;23;20363;-76
2023/05/06 00:53:58;;;;;;;28.58;18.27;;;;;;;;;;6215788;23;20359;-76
2023/05/06 00:56:24;;;;;;;26.77;18.08;;;;;;;;;;6213399;23;20502;-76
2023/05/06 00:58:50;;;;;;;33.63;18.38;;;;;;;;;;6214290;23;20379;-76
2023/05/06 01:01:16;;;;;;;26.65;18.48;;;;;;;;;;6214652;23;20364;-76
2023/05/06 01:03:43;;;;;;;31.08;18.73;;;;;;;;;;6225708;23;20392;-76
2023/05/06 01:06:31;;;;;;;29.75;19.13;;;;;;;;;;6208565;23;20378;-76
2023/05/06 01:09:07;;;;;;;26.02;18.35;;;;;;;;;;6203664;23;20447;-76
2023/05/06 01:11:43;;;;;;;31.42;18.67;;;11.90;99.90;;;;;;6234546;23;20450;-76
2023/05/06 01:14:35;;;;;;;26.58;18.63;;;12.00;99.90;;;;;;6236538;23;20413;-76
2023/05/06 01:17:05;;;;;;;25.77;18.13;;;;;;;;;;6236573;22;20367;-76
2023/05/06 01:19:38;;;;;;;27.73;18.83;;;;;;;;;;6234429;23;20399;-76
2023/05/06 01:22:09;;;;;;;26.35;17.58;;;;;;;;;;6232065;23;20359;-75
2023/05/06 01:24:36;;;;;;;26.80;17.65;;;;;;;;;;6232868;23;20917;-76
2023/05/06 01:27:02;;;;;;;24.40;16.85;;;;;;;;;;6231557;23;20376;-76
2023/05/06 01:29:28;;;;;;;23.27;17.07;;;;;;;;;;6184082;23;20515;-75
2023/05/06 01:31:57;;;;;;;24.20;17.25;;;;;;;;;;6205402;23;20430;-76
2023/05/06 01:34:27;;;;;;;26.65;17.05;;;;;;;;;;6205837;23;20455;-76
2023/05/06 01:36:53;;;;;;;23.35;16.90;;;;;;;;;;6214789;23;20734;-76
2023/05/06 01:39:26;;;;;;;25.10;17.60;;;;;;;;;;6189376;23;20777;-77
2023/05/06 01:41:56;;;;;;;25.73;17.70;;;;;;;;;;6189205;23;20391;-76
2023/05/06 01:44:22;;;;;;;25.07;17.50;;;;;;;;;;6213636;23;20398;-77
2023/05/06 01:46:49;;;;;;;25.70;17.83;;;;;;;;;;6189148;23;20450;-77
2023/05/06 01:49:16;;;;;;;26.70;18.20;;;;;;;;;;6213605;23;20390;-76
2023/05/06 01:51:52;;;;;;;26.83;17.53;;;;;;;;;;6212826;23;20455;-75
2023/05/06 01:54:18;;;;;;;27.92;18.35;;;;;;;;;;6211458;23;20391;-76
2023/05/06 01:56:44;;;;;;;25.48;17.95;;;;;;;;;;6186345;23;20830;-75
2023/05/06 01:59:10;;;;;;;24.63;16.98;;;;;;;;;;6187397;23;20449;-75
2023/05/06 02:01:36;;;;;;;26.90;17.52;;;;;;;;;;6212925;23;20371;-75
2023/05/06 02:04:02;;;;;;;26.20;17.67;;;;;;;;;;6213167;23;20359;-76
2023/05/06 02:06:29;;;;;;;24.70;16.85;;;;;;;;;;6212973;23;20368;-76
2023/05/06 02:08:55;;;;;;;25.42;17.08;;;;;;;;;;6212810;23;20409;-75
2023/05/06 02:11:21;;;;;;;23.77;17.00;;;;;;;;;;6213750;23;20363;-75
2023/05/06 02:13:47;;;;;;;24.77;16.70;;;;;;;;;;6212113;23;20383;-75
2023/05/06 02:16:13;;;;;;;24.85;17.17;;;;;;;;;;6211755;23;20395;-75
2023/05/06 02:18:40;;;;;;;24.92;17.17;;;;;;;;;;6187835;23;20837;-76
2023/05/06 02:21:06;;;;;;;24.77;17.50;;;;;;;;;;6163272;23;20379;-76
2023/05/06 02:23:32;;;;;;;23.83;17.23;;;;;;;;;;6212221;23;20391;-76
2023/05/06 02:25:58;;;;;;;26.38;17.90;;;;;;;;;;6187024;23;20399;-76
2023/05/06 02:28:24;;;;;;;25.02;17.50;;;;;;;;;;6162892;23;20375;-76
2023/05/06 02:30:54;;;;;;;28.13;17.95;;;;;;;;;;6189076;23;20374;-76
2023/05/06 02:33:20;;;;;;;26.55;17.60;;;;;;;;;;6191648;23;20445;-76
2023/05/06 02:35:47;;;;;;;25.35;18.05;;;;;;;;;;6190358;23;20367;-77
2023/05/06 02:38:13;;;;;;;25.35;18.17;;;;;;;;;;6190007;23;20399;-77
2023/05/06 02:40:39;;;;;;;24.00;17.90;;;;;;;;;;6189723;23;20690;-77
2023/05/06 02:43:05;;;;;;;26.55;18.83;;;;;;;;;;6191112;23;20383;-76
2023/05/06 02:45:31;;;;;;;30.00;19.67;;;;;;;;;;6189837;23;20364;-77
2023/05/06 02:47:57;;;;;;;32.42;20.10;;;;;;;;;;6215478;23;20364;-75
2023/05/06 02:50:23;;;;;;;31.00;20.10;;;;;;;;;;6190139;23;20386;-76
2023/05/06 02:52:49;;;;;;;35.05;20.45;;;;;;;;;;6189596;23;20887;-75
2023/05/06 02:55:15;;;;;;;34.72;20.08;;;;;;;;;;6188941;23;20458;-76
2023/05/06 02:57:41;;;;;;;29.13;19.67;;;;;;;;;;6163201;23;20390;-75
2023/05/06 03:00:09;;;;;;;31.20;20.10;;;;;;;;;;6216390;23;20659;-76
2023/05/06 03:02:36;;;;;;;34.15;21.00;;;;;;;;;;6188909;23;20905;-76
2023/05/06 03:05:03;;;;;;;31.23;20.20;;;;;;;;;;6215226;23;20430;-76
2023/05/06 03:07:29;;;;;;;31.48;20.02;;;;;;;;;;6190416;23;20729;-77
2023/05/06 03:09:56;;;;;;;32.67;20.35;;;;;;;;;;6216268;23;20364;-75
2023/05/06 03:12:22;;;;;;;29.17;20.10;;;;;;;;;;6189115;23;20443;-76
2023/05/06 03:14:48;;;;;;;28.50;19.70;;;;;;;;;;6189782;23;20868;-76
2023/05/06 03:17:14;;;;;;;28.42;20.17;;;;;;;;;;6189814;23;20426;-75
2023/05/06 03:19:40;;;;;;;26.42;19.02;;;;;;;;;;6216289;23;20384;-76
2023/05/06 03:22:06;;;;;;;28.70;18.95;;;;;;;;;;6216080;23;20384;-77
2023/05/06 03:24:32;;;;;;;26.95;19.42;;;;;;;;;;6215256;23;20447;-76
2023/05/06 03:26:58;;;;;;;29.95;20.00;;;;;;;;;;6189092;23;20369;-77
2023/05/06 03:29:25;;;;;;;30.00;19.80;;;;;;;;;;6215580;23;20359;-76
2023/05/06 03:31:51;;;;;;;27.80;19.55;;;;;;;;;;6215231;23;20368;-76
2023/05/06 03:34:17;;;;;;;29.27;20.08;;;;;;;;;;6188861;23;20808;-76
2023/05/06 03:36:43;;;;;;;32.25;21.42;;;;;;;;;;6215753;23;20360;-76
2023/05/06 03:39:09;;;;;;;30.67;20.87;;;;;;;;;;6164186;23;20368;-77
2023/05/06 03:41:35;;;;;;;32.55;21.35;;;;;;;;;;6214861;23;20849;-77
2023/05/06 03:44:01;;;;;;;30.23;20.13;;;;;;;;;;6188745;23;20846;-76
2023/05/06 03:46:27;;;;;;;28.17;19.25;;;;;;;;;;6187698;23;20410;-76
2023/05/06 03:48:53;;;;;;;32.57;20.77;;;;;;;;;;6189258;23;20395;-77
2023/05/06 03:51:19;;;;;;;34.03;21.80;;;;;;;;;;6214219;23;20368;-77
2023/05/06 03:53:45;;;;;;;35.33;22.13;;;;;;;;;;6213599;23;20367;-77
2023/05/06 03:56:12;;;;;;;32.67;21.65;;;;;;;;;;6215286;23;20826;-77
2023/05/06 03:58:38;;;;;;;33.13;22.23;;;;;;;;;;6214026;23;20750;-76
2023/05/06 04:01:04;;;;;;;35.15;22.75;;;;;;;;;;6188877;23;20399;-77
2023/05/06 04:03:30;;;;;;;35.55;21.90;;;;;;;;;;6189973;23;20447;-77
2023/05/06 04:05:57;;;;;;;35.28;22.27;;;;;;;;;;6211871;23;20443;-76
2023/05/06 04:08:23;;;;;;;33.33;21.70;;;;;;;;;;6213596;23;20838;-77
2023/05/06 04:10:49;;;;;;;32.03;21.13;;;;;;;;;;6213897;23;20371;-76
2023/05/06 04:13:16;;;;;;;29.77;20.67;;;;;;;;;;6215178;23;20433;-76
2023/05/06 04:15:42;;;;;;;30.77;20.60;;;;;;;;;;6214304;23;20845;-76
2023/05/06 04:18:08;;;;;;;25.58;18.70;;;;;;;;;;6214410;23;20447;-76
2023/05/06 04:20:34;;;;;;;26.43;19.17;;;;;;;;;;6213160;23;20556;-77
2023/05/06 04:23:01;;;;;;;26.15;19.38;;;;;;;;;;6213603;23;20896;-77
2023/05/06 04:25:27;;;;;;;28.83;19.50;;;;;;;;;;6215643;23;20833;-77
2023/05/06 04:27:53;;;;;;;25.67;18.75;;;;;;;;;;6213698;23;20498;-76
2023/05/06 04:30:20;;;;;;;24.58;18.17;;;;;;;;;;6214069;23;20391;-76
2023/05/06 04:32:46;;;;;;;28.80;19.70;;;;;;;;;;6213556;23;20458;-76
2023/05/06 04:35:12;;;;;;;30.13;20.08;;;;;;;;;;6212199;23;20360;-77
2023/05/06 04:37:38;;;;;;;30.63;20.45;;;;;;;;;;6213929;23;20527;-77
2023/05/06 04:40:04;;;;;;;29.20;20.35;;;;;;;;;;6213702;23;20371;-76
2023/05/06 04:42:31;;;;;;;35.10;22.83;;;;;;;;;;6189011;23;20391;-76
2023/05/06 04:44:58;;;;;;;30.27;20.70;;;;;;;;;;6214068;23;20829;-76
2023/05/06 04:47:24;;;;;;;33.00;21.95;;;;;;;;;;6213237;23;20402;-76
2023/05/06 04:49:50;;;;;;;33.08;22.17;;;;;;;;;;6210652;23;20364;-77
2023/05/06 04:52:16;;;;;;;31.52;22.65;;;;;;;;;;6214054;23;20366;-76
2023/05/06 04:54:42;;;;;;;34.08;22.92;;;;;;;;;;6188891;23;20897;-76
2023/05/06 04:57:08;;;;;;;32.63;22.50;;;;;;;;;;6216597;23;20367;-76
2023/05/06 04:59:35;;;;;;;38.42;24.88;;;;;;;;;;6218739;23;20377;-76
2023/05/06 05:02:01;;;;;;;35.90;23.83;;;;;;;;;;6218830;23;20393;-75
2023/05/06 05:04:27;;;;;;;36.27;23.93;;;;;;;;;;6218592;23;20393;-76
2023/05/06 05:06:53;;;;;;;39.00;25.80;;;;;;;;;;6245056;23;20431;-76
2023/05/06 05:09:19;;;;;;;41.08;25.70;;;;;;;;;;6219199;23;20366;-76
2023/05/06 05:11:45;;;;;;;43.75;27.40;;;;;;;;;;6218588;23;20353;-76
2023/05/06 05:14:11;;;;;;;45.60;27.53;;;;;;;;;;6218652;23;20840;-77
2023/05/06 05:16:37;;;;;;;48.40;29.23;;;;;;;;;;6217943;23;20755;-76
2023/05/06 05:19:03;;;;;;;45.20;28.25;;;;;;;;;;6218175;23;20376;-76
2023/05/06 05:21:29;;;;;;;43.30;27.42;;;;;;;;;;6192997;23;20369;-75
2023/05/06 05:23:55;;;;;;;46.85;28.30;;;;;;;;;;6167975;23;20385;-76
2023/05/06 05:26:21;;;;;;;46.92;28.27;;;;;;;;;;6192976;23;20429;-76
2023/05/06 05:28:47;;;;;;;44.65;27.55;;;;;;;;;;6245595;23;20685;-75
2023/05/06 05:31:13;;;;;;;44.55;28.17;;;;;;;;;;6245058;23;20484;-76
2023/05/06 05:33:39;;;;;;;39.88;25.83;;;;;;;;;;6245580;23;20358;-76
2023/05/06 05:36:06;;;;;;;38.72;25.65;;;;;;;;;;6245446;23;20389;-76
2023/05/06 05:38:32;;;;;;;42.08;26.75;;;;;;;;;;6193274;23;20361;-76
2023/05/06 05:40:58;;;;;;;42.53;26.80;;;;;;;;;;6192822;23;20360;-75
2023/05/06 05:43:25;;;;;;;42.93;26.17;;;;;;;;;;6193834;23;20390;-75
2023/05/06 05:45:51;;;;;;;40.77;26.33;;;;;;;;;;6191992;23;20365;-76
2023/05/06 05:48:17;;;;;;;37.47;25.63;;;;;;;;;;6192532;23;20369;-75
2023/05/06 05:50:44;;;;;;;36.75;25.05;;;;;;;;;;6217900;23;20397;-77
2023/05/06 05:53:10;;;;;;;37.35;24.77;;;;;;;;;;6219065;23;20373;-76
2023/05/06 05:55:36;;;;;;;39.58;25.75;;;;;;;;;;6217288;23;20417;-76
2023/05/06 05:58:02;;;;;;;41.00;26.52;;;;;;;;;;6218429;23;20404;-76
2023/05/06 06:00:29;;;;;;;38.67;25.13;;;;;;;;;;6244124;23;20370;-77
2023/05/06 06:02:55;;;;;;;37.88;25.70;;;;;;;;;;6193318;23;20385;-77
2023/05/06 06:05:21;;;;;;;41.25;27.05;;;;;;;;;;6194401;23;20372;-77
2023/05/06 06:07:47;;;;;;;40.33;26.53;;;;;;;;;;6194769;23;20365;-76
2023/05/06 06:10:14;;;;;;;40.13;27.45;;;;;;;;;;6219274;23;20366;-76
2023/05/06 06:12:40;;;;;;;45.35;29.58;;;;;;;;;;6218743;23;20381;-76
2023/05/06 06:15:06;;;;;;;38.05;26.45;;;;;;;;;;6246456;23;20372;-77
2023/05/06 06:17:32;;;;;;;38.15;26.23;;;;;;;;;;6215422;23;20412;-77
2023/05/06 06:19:58;;;;;;;41.45;27.55;;;;;;;;;;6216825;23;20366;-77
2023/05/06 06:22:25;;;;;;;43.70;27.60;;;;;;;;;;6193884;23;20390;-76
2023/05/06 06:24:52;;;;;;;40.38;27.83;;;;;;;;;;6220026;23;20358;-77
2023/05/06 06:27:19;;;;;;;36.70;25.98;;;;;;;;;;6194051;23;20757;-77
2023/05/06 06:29:48;;;;;;;39.30;25.08;;;;;;;;;;6219198;23;20370;-76
2023/05/06 06:32:14;;;;;;;39.97;26.67;;;;;;;;;;6218160;23;20376;-78
2023/05/06 06:34:40;;;;;;;38.13;26.73;;;;;;;;;;6219065;23;20373;-78
2023/05/06 06:37:09;;;;;;;39.42;26.65;;;;;;;;;;6216294;23;20423;-77
2023/05/06 06:39:35;;;;;;;37.90;25.35;;;;;;;;;;6194620;23;20866;-77
2023/05/06 06:42:05;;;;;;;35.38;24.77;;;;;;;;;;6218094;23;20700;-78
2023/05/06 06:44:33;;;;;;;32.03;23.15;;;12.70;99.90;;;;;;6192257;23;20370;-78
2023/05/06 06:46:59;;;;;;;34.28;23.67;;;;;;;;;;6216586;23;20368;-77
2023/05/06 06:49:26;;;;;;;30.73;22.05;;;;;;;;;;6219301;23;20401;-77
2023/05/06 06:51:52;;;;;;;30.80;21.92;;;;;;;;;;6191732;23;20415;-78
2023/05/06 06:54:18;;;;;;;31.13;20.65;;;;;;;;;;6194384;23;20839;-77
2023/05/06 06:56:44;;;;;;;25.88;19.52;;;;;;;;;;6215300;23;20373;-75
2023/05/06 06:59:10;;;;;;;32.43;21.47;;;;;;;;;;6185851;23;20468;-77
2023/05/06 07:01:36;;;;;;;31.30;22.67;;;;;;;;;;6211595;23;20877;-77
2023/05/06 07:04:02;;;;;;;30.27;21.17;;;;;;;;;;6187759;23;20380;-78
2023/05/06 07:06:29;;;;;;;27.63;20.83;;;;;;;;;;6210531;23;20455;-77
2023/05/06 07:08:55;;;;;;;30.20;21.17;;;;;;;;;;6186387;23;20422;-76
2023/05/06 07:11:21;;;;;;;27.83;20.50;;;;;;;;;;6210391;23;20710;-77
2023/05/06 07:13:47;;;;;;;30.13;20.40;;;;;;;;;;6209784;23;20398;-78
2023/05/06 07:16:13;;;;;;;25.95;19.48;;;;;;;;;;6186608;23;20374;-77
2023/05/06 07:18:39;;;;;;;26.47;19.20;;;;;;;;;;6213114;23;20364;-78
2023/05/06 07:21:05;;;;;;;23.40;18.33;;;;;;;;;;6214664;23;20422;-78
2023/05/06 07:23:31;;;;;;;23.38;18.02;;;13.30;99.90;;;;;;6215354;23;20430;-76
2023/05/06 07:25:58;;;;;;;24.17;18.73;;;13.20;99.90;;;;;;6161669;23;20363;-77
2023/05/06 07:28:24;;;;;;;25.27;17.85;;;;;;;;;;6215902;23;20356;-78
2023/05/06 07:30:51;;;;;;;23.70;18.10;;;13.70;99.90;;;;;;6215240;23;20370;-77
2023/05/06 07:33:17;;;;;;;25.33;18.23;;;13.60;99.90;;;;;;6215423;23;20363;-77
2023/05/06 07:35:43;;;;;;;22.83;16.73;;;;;;;;;;6213535;23;20822;-78
2023/05/06 07:38:09;;;;;;;21.10;15.93;;;;;;;;;;6186667;23;20367;-77
2023/05/06 07:40:35;;;;;;;24.40;17.27;;;;;;;;;;6212537;23;20376;-78
2023/05/06 07:43:02;;;;;;;23.52;17.50;;;;;;;;;;6164246;23;20484;-79
2023/05/06 07:45:28;;;;;;;21.25;16.33;;;;;;;;;;6215283;23;20453;-79
2023/05/06 07:47:54;;;;;;;21.73;15.82;;;;;;;;;;6163159;23;20363;-79
2023/05/06 07:50:20;;;;;;;19.73;15.73;;;;;;;;;;6186185;23;20363;-78
2023/05/06 07:52:46;;;;;;;17.40;13.77;;;14.50;99.90;;;;;;6212946;23;20371;-78
2023/05/06 07:55:12;;;;;;;16.98;13.95;;;;;;;;;;6213923;23;20372;-79
2023/05/06 07:57:38;;;;;;;15.50;11.88;;;;;;;;;;6212603;23;20441;-79
2023/05/06 08:00:05;;;;;;;16.58;12.40;;;;;;;;;;6215110;23;20374;-78
2023/05/06 08:02:31;;;;;;;16.42;12.63;;;;;;;;;;6213469;23;20387;-78
2023/05/06 08:04:57;;;;;;;16.52;12.70;;;;;;;;;;6184884;23;20368;-78
2023/05/06 08:07:23;;;;;;;16.58;12.85;;;;;;;;;;6212533;23;20754;-79
2023/05/06 08:09:49;;;;;;;14.65;11.70;;;;;;;;;;6211628;23;20395;-77
2023/05/06 08:12:16;;;;;;;13.98;11.48;;;;;;;;;;6162525;23;20379;-77
2023/05/06 08:14:42;;;;;;;13.93;11.30;;;;;;;;;;6186966;23;20368;-77
2023/05/06 08:17:08;;;;;;;15.15;11.32;;;;;;;;;;6188092;23;20364;-77
2023/05/06 08:19:34;;;;;;;14.63;10.80;;;;;;;;;;6211325;23;20877;-77
2023/05/06 08:22:00;;;;;;;14.25;11.25;;;;;;;;;;6212055;23;20395;-77
2023/05/06 08:24:26;;;;;;;15.25;11.20;;;;;;;;;;6212835;23;20367;-76
2023/05/06 08:26:52;;;;;;;14.07;11.38;;;;;;;;;;6186783;23;20364;-78
2023/05/06 08:29:18;;;;;;;13.15;10.45;;;;;;;;;;6186982;23;20363;-77
2023/05/06 08:31:44;;;;;;;11.57;9.10;;;;;;;;;;6213882;23;20367;-77
2023/05/06 08:34:11;;;;;;;14.38;10.32;;;;;;;;;;6213553;23;20379;-77
2023/05/06 08:36:37;;;;;;;13.00;9.93;;;;;;;;;;6187352;23;20380;-77
2023/05/06 08:39:03;;;;;;;12.63;9.77;;;;;;;;;;6185016;23;20360;-76
2023/05/06 08:41:30;;;;;;;13.13;9.50;;;;;;;;;;6207693;23;20698;-77
2023/05/06 08:43:57;;;;;;;11.07;9.10;;;16.60;99.90;;;;;;6212112;23;20398;-77
2023/05/06 08:46:23;;;;;;;10.82;9.10;;;;;;;;;;6186757;23;20371;-77
2023/05/06 08:48:49;;;;;;;8.60;7.28;;;;;;;;;;6211773;23;20841;-77
2023/05/06 08:51:15;;;;;;;10.03;7.33;;;;;;;;;;6209213;23;20394;-78
2023/05/06 08:53:46;;;;;;;8.55;7.03;;;17.70;99.90;;;;;;6212724;23;20395;-77
2023/05/06 08:56:13;;;;;;;9.13;6.28;;;;;;;;;;6212314;23;20747;-78
2023/05/06 08:58:45;;;;;;;8.10;5.50;;;17.70;99.90;;;;;;6211245;23;20414;-78
2023/05/06 09:01:11;;;;;;;6.50;5.23;;;;;;;;;;6210235;23;20403;-77
2023/05/06 09:03:37;;;;;;;7.03;4.82;;;;;;;;;;6211762;23;20427;-77
2023/05/06 09:06:03;;;;;;;8.23;5.55;;;17.70;99.90;;;;;;6209651;23;20368;-77
2023/05/06 09:08:29;;;;;;;5.22;3.67;;;;;;;;;;6209530;23;20489;-76
2023/05/06 09:10:56;;;;;;;5.70;3.30;;;;;;;;;;6208610;23;20411;-77
2023/05/06 09:13:22;;;;;;;3.40;2.50;;;;;;;;;;6211645;23;20379;-78
2023/05/06 09:15:48;;;;;;;3.38;2.70;;;19.00;99.90;;;;;;6211409;23;20450;-78
2023/05/06 09:18:15;;;;;;;4.53;3.20;;;;;;;;;;6184867;23;20373;-78
2023/05/06 09:20:41;;;;;;;4.60;3.10;;;;;;;;;;6212115;23;20852;-78
2023/05/06 09:23:12;;;;;;;5.05;3.67;;;18.60;99.90;;;;;;6211069;23;20869;-78
2023/05/06 09:25:38;;;;;;;4.80;3.22;;;18.40;99.90;;;;;;6211616;23;20378;-78
2023/05/06 09:28:06;;;;;;;5.10;3.60;;;18.80;99.90;;;;;;6212403;23;20363;-77
2023/05/06 09:30:32;;;;;;;7.20;3.75;;;;;;;;;;6186976;23;20445;-77
2023/05/06 09:32:58;;;;;;;5.35;3.72;;;18.70;99.90;;;;;;6212681;23;20450;-76
2023/05/06 09:35:28;;;;;;;5.85;4.50;;;;;;;;;;6212306;23;20390;-77
2023/05/06 09:37:55;;;;;;;5.93;4.25;;;19.00;99.90;;;;;;6210728;23;20773;-78
2023/05/06 09:40:25;;;;;;;10.50;4.90;;;19.00;99.90;;;;;;6210823;23;20376;-76
2023/05/06 09:42:51;;;;;;;6.07;4.50;;;;;;;;;;6210357;23;20500;-78
2023/05/06 09:45:16;;;;;;;8.10;4.75;;;19.00;99.90;;;;;;6184462;23;20363;-78
2023/05/06 09:47:43;;;;;;;6.45;4.50;;;;;;;;;;6185974;23;20384;-78
2023/05/06 09:50:12;;;;;;;10.10;4.50;;;19.10;99.90;;;;;;6209957;23;20367;-78
2023/05/06 09:52:38;;;;;;;6.20;4.78;;;19.10;99.90;;;;;;6208647;23;20368;-78
2023/05/06 09:55:05;;;;;;;9.70;5.50;;;18.90;99.90;;;;;;6185344;23;20459;-78
2023/05/06 09:57:32;;;;;;;6.87;5.20;;;18.90;99.90;;;;;;6180658;23;20470;-77
2023/05/06 10:00:01;;;;;;;8.80;6.88;;;18.60;99.90;;;;;;6156236;23;20378;-78
2023/05/06 10:02:28;;;;;;;8.85;6.63;;;;;;;;;;6179797;23;20432;-78
2023/05/06 10:04:56;;;;;;;9.65;6.65;;;18.80;99.90;;;;;;6156097;23;20396;-78
2023/05/06 10:07:24;;;;;;;9.27;6.63;;;18.70;99.90;;;;;;6179384;23;20365;-78
2023/05/06 10:09:50;;;;;;;9.43;6.95;;;19.20;99.90;;;;;;6178715;23;21083;-78
2023/05/06 10:12:17;;;;;;;10.18;6.53;;;18.90;99.90;;;;;;6179548;23;20401;-77
2023/05/06 10:14:43;;;;;;;10.02;7.32;;;18.70;99.90;;;;;;6154187;23;20369;-78
2023/05/06 10:17:11;;;;;;;8.37;6.50;;;;;;;;;;6179713;23;20423;-78
2023/05/06 10:19:40;;;;;;;10.57;7.88;;;;;;;;;;6155573;23;20922;-78
2023/05/06 10:22:30;;;;;;;9.93;7.03;;;18.60;99.90;;;;;;6155478;23;20399;-77
2023/05/06 10:25:04;;;;;;;11.07;7.03;;;;;;;;;;6150036;23;20377;-77
2023/05/06 10:27:34;;;;;;;12.05;9.27;;;18.50;99.90;;;;;;6154611;23;20974;-79
2023/05/06 10:30:00;;;;;;;12.20;8.73;;;18.60;99.90;;;;;;6181823;23;20365;-78
2023/05/06 10:32:28;;;;;;;10.82;8.70;;;;;;;;;;6156584;23;20770;-78
2023/05/06 10:34:55;;;;;;;11.70;9.18;;;;;;;;;;6156334;23;20397;-78
2023/05/06 10:37:24;;;;;;;11.70;8.80;;;;;;;;;;6180179;23;20427;-78
2023/05/06 10:39:52;;;;;;;14.00;8.83;;;18.50;99.90;;;;;;6182737;23;20369;-78
2023/05/06 10:42:18;;;;;;;12.47;9.30;;;;;;;;;;6156390;23;20883;-78
2023/05/06 10:44:58;;;;;;;12.05;9.70;;;18.70;99.90;;;;;;6180558;23;20369;-78
2023/05/06 10:47:24;;;;;;;12.93;8.40;;;18.90;99.90;;;;;;6155892;23;20376;-77
2023/05/06 10:50:09;;;;;;;15.13;9.70;;;;;;;;;;6181515;23;20393;-78
2023/05/06 10:52:45;;;;;;;12.57;9.52;;;18.40;99.90;;;;;;6181080;23;20369;-77
2023/05/06 10:55:26;;;;;;;13.52;8.75;;;;;;;;;;6133241;23;20427;-77
2023/05/06 10:58:15;;;;;;;14.03;8.83;;;;;;;;;;6169779;23;20465;-77
2023/05/06 11:00:42;;;;;;;12.80;9.10;;;;;;;;;;6175015;23;20375;-78
2023/05/06 11:03:11;;;;;;;12.93;9.40;;;18.40;99.90;;;;;;6211965;23;20387;-78
2023/05/06 11:05:46;;;;;;;12.15;9.75;;;;;;;;;;6213326;23;20367;-78
2023/05/06 11:08:12;;;;;;;14.63;9.52;;;;;;;;;;6213342;23;20459;-78
2023/05/06 11:10:38;;;;;;;13.75;10.30;;;18.40;99.90;;;;;;6212001;23;20371;-78
2023/05/06 11:13:21;;;;;;;13.70;9.57;;;;;;;;;;6212315;23;20430;-78
2023/05/06 11:15:49;;;;;;;13.98;10.40;;;;;;;;;;6212575;23;20403;-78
2023/05/06 11:18:32;;;;;;;13.98;9.95;;;;;;;;;;6210072;23;20454;-78
2023/05/06 11:21:01;;;;;;;14.00;9.98;;;18.10;99.90;;;;;;6211289;23;20367;-78
2023/05/06 11:23:42;;;;;;;13.45;10.25;;;;;;;;;;6212504;23;20466;-77
2023/05/06 11:26:09;;;;;;;12.82;9.70;;;;;;;;;;6187324;23;20399;-77
2023/05/06 11:28:35;;;;;;;12.10;9.87;;;18.40;99.90;;;;;;6212141;23;20368;-77
2023/05/06 11:31:01;;;;;;;14.97;10.30;;;;;;;;;;6212937;23;20437;-77
2023/05/06 11:33:32;;;;;;;13.73;10.40;;;18.30;99.90;;;;;;6186476;23;20379;-78
2023/05/06 11:35:59;;;;;;;13.45;10.30;;;;;;;;;;6186588;23;20425;-78
2023/05/06 11:38:25;;;;;;;15.40;10.93;;;18.30;99.90;;;;;;6211296;23;20438;-77
2023/05/06 11:40:52;;;;;;;14.73;10.77;;;;;;;;;;6186524;23;20426;-78
2023/05/06 11:43:18;;;;;;;14.20;10.20;;;;;;;;;;6162945;23;20869;-77
2023/05/06 11:45:45;;;;;;;13.65;9.68;;;18.40;99.90;;;;;;6186800;23;20363;-77
2023/05/06 11:48:12;;;;;;;16.13;10.88;;;;;;;;;;6185496;23;20375;-77
2023/05/06 11:50:38;;;;;;;14.40;11.38;;;;;;;;;;6186363;23;20370;-78
2023/05/06 11:53:04;;;;;;;15.65;11.73;;;;;;;;;;6210688;23;20443;-79
2023/05/06 11:55:30;;;;;;;15.18;12.70;;;;;;;;;;6208721;23;20698;-78
2023/05/06 11:57:57;;;;;;;19.13;13.85;;;;;;;;;;6210783;23;20383;-76
2023/05/06 12:00:23;;;;;;;19.02;14.65;;;;;;;;;;6184863;23;20829;-77
2023/05/06 12:02:49;;;;;;;22.63;16.90;;;;;;;;;;6161182;23;20413;-77
2023/05/06 12:05:14;;;;;;;21.47;12.70;;;15.60;99.90;;;;;;6212969;23;20368;-82
2023/05/06 12:07:42;;;;;;;21.67;12.37;;;;;;;;;;6187359;23;20446;-81
2023/05/06 12:10:08;;;;;;;28.58;12.07;;;14.00;99.90;;;;;;6213333;23;20450;-82
2023/05/06 12:12:34;;;;;;;44.88;14.40;;;;;;;;;;6213181;23;20453;-85
2023/05/06 12:15:00;;;;;;;30.80;11.65;;;;;;;;;;6212851;23;20368;-83
2023/05/06 12:17:26;;;;;;;17.70;7.88;;;;;;;;;;6211213;23;20477;-81
2023/05/06 12:19:52;;;;;;;7.70;4.10;;;;;;;;;;6211041;23;20372;-78
2023/05/06 12:22:25;;;;;;;10.20;6.28;;;;;;;;;;6186104;23;20487;-76
2023/05/06 12:24:52;;;;;;;15.75;8.70;;;;;;;;;;6208482;23;20398;-77
2023/05/06 12:27:36;;;;;;;16.50;9.48;;;;;;;;;;6211166;23;20356;-78
2023/05/06 12:30:03;;;;;;;15.18;9.00;;;;;;;;;;6209923;23;20664;-77
2023/05/06 12:32:29;;;;;;;19.85;9.68;;;13.50;99.90;;;;;;6186266;23;20841;-77
2023/05/06 12:34:57;;;;;;;12.05;7.10;;;;;;;;;;6161311;23;20469;-77
2023/05/06 12:37:24;;;;;;;15.35;8.20;;;;;;;;;;6209991;23;20761;-77
2023/05/06 12:39:50;;;;;;;18.27;9.50;;;;;;;;;;6210247;23;20442;-77
2023/05/06 12:42:20;;;;;;;10.73;6.85;;;14.30;99.90;;;;;;6186070;23;20437;-77
2023/05/06 12:44:46;;;;;;;9.30;5.40;;;;;;;;;;6209854;23;20367;-78
2023/05/06 12:47:20;;;;;;;8.48;4.32;;;13.40;99.90;;;;;;6210139;23;20376;-77
2023/05/06 12:49:50;;;;;;;7.10;2.95;;;;;;;;;;6210668;23;20371;-78
2023/05/06 12:52:17;;;;;;;6.72;3.60;;;;;;;;;;6209179;23;20376;-77
2023/05/06 12:54:43;;;;;;;9.57;4.30;;;;;;;;;;6209665;23;20690;-77
2023/05/06 12:57:09;;;;;;;8.00;4.67;;;;;;;;;;6210965;23;20374;-77
2023/05/06 12:59:36;;;;;;;6.80;3.97;;;;;;;;;;6211454;23;20865;-77
2023/05/06 13:02:02;;;;;;;8.18;4.18;;;;;;;;;;6211629;23;20367;-77
2023/05/06 13:04:28;;;;;;;7.03;3.83;;;;;;;;;;6211113;23;20698;-77
2023/05/06 13:06:55;;;;;;;8.23;4.40;;;;;;;;;;6211889;23;20813;-79
2023/05/06 13:09:22;;;;;;;9.15;4.43;;;;;;;;;;6212067;23;20364;-78
2023/05/06 13:11:48;;;;;;;6.67;4.33;;;;;;;;;;6211961;23;20371;-79
2023/05/06 13:14:15;;;;;;;7.35;5.25;;;;;;;;;;6212112;23;20486;-79
2023/05/06 13:16:41;;;;;;;9.77;6.32;;;;;;;;;;6211379;23;20849;-78
2023/05/06 13:19:11;;;;;;;12.38;7.93;;;13.80;99.90;;;;;;6187490;23;20378;-77
2023/05/06 13:21:37;;;;;;;11.63;8.40;;;14.20;99.90;;;;;;6211957;23;20450;-77
2023/05/06 13:24:04;;;;;;;11.27;8.50;;;;;;;;;;6210638;23;20449;-78
2023/05/06 13:26:31;;;;;;;14.40;9.73;;;;;;;;;;6210525;23;20667;-77
2023/05/06 13:28:57;;;;;;;14.50;10.27;;;;;;;;;;6212240;23;20363;-77
2023/05/06 13:31:24;;;;;;;15.80;11.17;;;;;;;;;;6214755;23;20686;-77
2023/05/06 13:33:50;;;;;;;13.85;11.20;;;;;;;;;;6214708;23;20371;-77
2023/05/06 13:36:16;;;;;;;14.50;11.90;;;;;;;;;;6213943;23;20375;-77
2023/05/06 13:38:42;;;;;;;14.75;11.48;;;;;;;;;;6214373;23;20382;-77
2023/05/06 13:41:11;;;;;;;11.37;9.50;;;;;;;;;;6190850;23;20371;-78
2023/05/06 13:43:37;;;;;;;12.13;9.50;;;;;;;;;;6214606;23;20406;-78
2023/05/06 13:46:03;;;;;;;11.65;9.73;;;;;;;;;;6218413;23;20463;-78
2023/05/06 13:48:29;;;;;;;11.77;9.18;;;;;;;;;;6219177;23;20356;-77
2023/05/06 13:50:55;;;;;;;11.00;8.57;;;;;;;;;;6218313;23;20364;-77
2023/05/06 13:53:21;;;;;;;8.48;7.00;;;;;;;;;;6216634;23;20445;-77
2023/05/06 13:55:47;;;;;;;7.30;6.60;;;;;;;;;;6220263;23;20372;-78
2023/05/06 13:58:16;;;;;;;8.60;6.82;;;14.50;99.90;;;;;;6218052;23;20441;-79
2023/05/06 14:00:42;;;;;;;8.38;6.93;;;;;;;;;;6196622;23;20455;-78
2023/05/06 14:03:08;;;;;;;8.13;6.10;;;;;;;;;;6218250;23;20475;-78